sensor_id;sensor_type;location;lat;lon;timestamp;P1;durP1;ratioP1;P2;durP2;ratioP2
52708;SDS011;38606;52.986;6.980;2023-02-28T00:01:21;10.18;;;2.85;;
52708;SDS011;38606;52.986;6.980;2023-02-28T00:03:47;13.60;;;3.53;;
52708;SDS011;38606;52.986;6.980;2023-02-28T00:06:13;5.57;;;3.20;;
52708;SDS011;38606;52.986;6.980;2023-02-28T00:08:39;8.95;;;3.75;;
52708;SDS011;38606;52.986;6.980;2023-02-28T00:11:05;11.63;;;4.03;;
52708;SDS011;38606;52.986;6.980;2023-02-28T00:13:37;8.90;;;3.45;;
52708;SDS011;38606;52.986;6.980;2023-02-28T00:16:09;9.43;;;3.53;;
52708;SDS011;38606;52.986;6.980;2023-02-28T00:18:36;10.02;;;3.40;;
52708;SDS011;38606;52.986;6.980;2023-02-28T00:21:03;13.73;;;4.28;;
52708;SDS011;38606;52.986;6.980;2023-02-28T00:23:29;8.43;;;3.55;;
52708;SDS011;38606;52.986;6.980;2023-02-28T00:25:55;12.57;;;3.95;;
52708;SDS011;38606;52.986;6.980;2023-02-28T00:28:21;10.70;;;3.55;;
52708;SDS011;38606;52.986;6.980;2023-02-28T00:30:47;11.15;;;3.85;;
52708;SDS011;38606;52.986;6.980;2023-02-28T00:33:12;9.45;;;4.10;;
52708;SDS011;38606;52.986;6.980;2023-02-28T00:35:38;10.43;;;4.32;;
52708;SDS011;38606;52.986;6.980;2023-02-28T00:38:04;12.65;;;3.42;;
52708;SDS011;38606;52.986;6.980;2023-02-28T00:40:30;7.47;;;3.55;;
52708;SDS011;38606;52.986;6.980;2023-02-28T00:42:56;11.68;;;3.97;;
52708;SDS011;38606;52.986;6.980;2023-02-28T00:45:22;11.15;;;3.72;;
52708;SDS011;38606;52.986;6.980;2023-02-28T00:47:48;9.90;;;3.53;;
52708;SDS011;38606;52.986;6.980;2023-02-28T00:50:18;7.85;;;3.20;;
52708;SDS011;38606;52.986;6.980;2023-02-28T00:52:45;6.32;;;3.38;;
52708;SDS011;38606;52.986;6.980;2023-02-28T00:55:11;6.68;;;3.00;;
52708;SDS011;38606;52.986;6.980;2023-02-28T00:57:37;9.63;;;3.70;;
52708;SDS011;38606;52.986;6.980;2023-02-28T01:00:03;6.25;;;3.42;;
52708;SDS011;38606;52.986;6.980;2023-02-28T01:02:29;7.28;;;3.25;;
52708;SDS011;38606;52.986;6.980;2023-02-28T01:04:55;15.95;;;4.55;;
52708;SDS011;38606;52.986;6.980;2023-02-28T01:07:22;8.38;;;3.22;;
52708;SDS011;38606;52.986;6.980;2023-02-28T01:09:48;6.38;;;3.45;;
52708;SDS011;38606;52.986;6.980;2023-02-28T01:12:14;10.07;;;3.40;;
52708;SDS011;38606;52.986;6.980;2023-02-28T01:14:40;9.85;;;3.80;;
52708;SDS011;38606;52.986;6.980;2023-02-28T01:17:07;6.90;;;3.40;;
52708;SDS011;38606;52.986;6.980;2023-02-28T01:19:32;8.73;;;3.40;;
52708;SDS011;38606;52.986;6.980;2023-02-28T01:22:02;7.53;;;3.35;;
52708;SDS011;38606;52.986;6.980;2023-02-28T01:24:29;6.63;;;3.50;;
52708;SDS011;38606;52.986;6.980;2023-02-28T01:26:55;7.55;;;3.92;;
52708;SDS011;38606;52.986;6.980;2023-02-28T01:29:21;6.55;;;3.05;;
52708;SDS011;38606;52.986;6.980;2023-02-28T01:31:46;9.43;;;4.15;;
52708;SDS011;38606;52.986;6.980;2023-02-28T01:34:12;6.85;;;3.58;;
52708;SDS011;38606;52.986;6.980;2023-02-28T01:36:38;7.57;;;3.40;;
52708;SDS011;38606;52.986;6.980;2023-02-28T01:39:03;6.50;;;3.45;;
52708;SDS011;38606;52.986;6.980;2023-02-28T01:41:30;7.00;;;3.75;;
52708;SDS011;38606;52.986;6.980;2023-02-28T01:43:59;6.80;;;3.65;;
52708;SDS011;38606;52.986;6.980;2023-02-28T01:46:29;7.00;;;3.90;;
52708;SDS011;38606;52.986;6.980;2023-02-28T01:49:09;8.50;;;4.15;;
52708;SDS011;38606;52.986;6.980;2023-02-28T01:51:50;9.32;;;3.97;;
52708;SDS011;38606;52.986;6.980;2023-02-28T01:54:21;10.07;;;4.22;;
52708;SDS011;38606;52.986;6.980;2023-02-28T01:56:56;10.85;;;4.38;;
52708;SDS011;38606;52.986;6.980;2023-02-28T01:59:30;9.25;;;3.95;;
52708;SDS011;38606;52.986;6.980;2023-02-28T02:02:00;8.68;;;4.65;;
52708;SDS011;38606;52.986;6.980;2023-02-28T02:04:30;7.65;;;4.45;;
52708;SDS011;38606;52.986;6.980;2023-02-28T02:06:59;10.65;;;4.80;;
52708;SDS011;38606;52.986;6.980;2023-02-28T02:09:25;9.20;;;4.47;;
52708;SDS011;38606;52.986;6.980;2023-02-28T02:11:51;10.75;;;4.60;;
52708;SDS011;38606;52.986;6.980;2023-02-28T02:17:04;10.45;;;5.40;;
52708;SDS011;38606;52.986;6.980;2023-02-28T02:41:53;9.63;;;5.25;;
52708;SDS011;38606;52.986;6.980;2023-02-28T02:44:26;9.95;;;4.75;;
52708;SDS011;38606;52.986;6.980;2023-02-28T02:46:58;11.93;;;5.65;;
52708;SDS011;38606;52.986;6.980;2023-02-28T02:49:31;12.02;;;5.25;;
52708;SDS011;38606;52.986;6.980;2023-02-28T02:51:58;8.43;;;5.70;;
52708;SDS011;38606;52.986;6.980;2023-02-28T02:54:29;10.57;;;5.35;;
52708;SDS011;38606;52.986;6.980;2023-02-28T02:56:59;11.18;;;5.22;;
52708;SDS011;38606;52.986;6.980;2023-02-28T02:59:28;10.45;;;5.35;;
52708;SDS011;38606;52.986;6.980;2023-02-28T03:01:56;9.80;;;5.05;;
52708;SDS011;38606;52.986;6.980;2023-02-28T03:04:27;10.32;;;5.88;;
52708;SDS011;38606;52.986;6.980;2023-02-28T03:06:58;9.75;;;5.78;;
52708;SDS011;38606;52.986;6.980;2023-02-28T03:09:24;13.25;;;5.38;;
52708;SDS011;38606;52.986;6.980;2023-02-28T03:11:52;9.52;;;5.40;;
52708;SDS011;38606;52.986;6.980;2023-02-28T03:16:59;9.75;;;5.57;;
52708;SDS011;38606;52.986;6.980;2023-02-28T03:19:37;10.50;;;5.88;;
52708;SDS011;38606;52.986;6.980;2023-02-28T03:25:09;9.48;;;5.55;;
52708;SDS011;38606;52.986;6.980;2023-02-28T03:30:35;12.35;;;5.75;;
52708;SDS011;38606;52.986;6.980;2023-02-28T03:33:36;8.80;;;5.65;;
52708;SDS011;38606;52.986;6.980;2023-02-28T03:36:21;13.30;;;6.03;;
52708;SDS011;38606;52.986;6.980;2023-02-28T03:41:20;14.52;;;5.80;;
52708;SDS011;38606;52.986;6.980;2023-02-28T03:43:58;10.80;;;6.05;;
52708;SDS011;38606;52.986;6.980;2023-02-28T03:46:31;12.90;;;6.07;;
52708;SDS011;38606;52.986;6.980;2023-02-28T03:51:36;13.13;;;6.40;;
52708;SDS011;38606;52.986;6.980;2023-02-28T03:54:07;12.38;;;6.75;;
52708;SDS011;38606;52.986;6.980;2023-02-28T03:56:56;13.10;;;6.20;;
52708;SDS011;38606;52.986;6.980;2023-02-28T03:59:32;13.55;;;6.13;;
52708;SDS011;38606;52.986;6.980;2023-02-28T04:02:03;11.90;;;6.57;;
52708;SDS011;38606;52.986;6.980;2023-02-28T04:04:28;15.02;;;6.88;;
52708;SDS011;38606;52.986;6.980;2023-02-28T04:07:00;12.38;;;7.45;;
52708;SDS011;38606;52.986;6.980;2023-02-28T04:09:33;10.77;;;6.50;;
52708;SDS011;38606;52.986;6.980;2023-02-28T04:11:59;14.48;;;7.25;;
52708;SDS011;38606;52.986;6.980;2023-02-28T04:14:25;10.35;;;6.72;;
52708;SDS011;38606;52.986;6.980;2023-02-28T04:16:51;10.23;;;6.55;;
52708;SDS011;38606;52.986;6.980;2023-02-28T04:19:17;10.45;;;7.00;;
52708;SDS011;38606;52.986;6.980;2023-02-28T04:21:45;14.85;;;7.07;;
52708;SDS011;38606;52.986;6.980;2023-02-28T04:24:13;18.48;;;7.78;;
52708;SDS011;38606;52.986;6.980;2023-02-28T04:26:47;11.50;;;6.80;;
52708;SDS011;38606;52.986;6.980;2023-02-28T04:29:18;11.32;;;6.38;;
52708;SDS011;38606;52.986;6.980;2023-02-28T04:31:45;14.48;;;6.88;;
52708;SDS011;38606;52.986;6.980;2023-02-28T04:34:11;11.02;;;7.60;;
52708;SDS011;38606;52.986;6.980;2023-02-28T04:36:37;13.95;;;7.25;;
52708;SDS011;38606;52.986;6.980;2023-02-28T04:39:02;15.63;;;7.07;;
52708;SDS011;38606;52.986;6.980;2023-02-28T04:41:29;12.43;;;7.15;;
52708;SDS011;38606;52.986;6.980;2023-02-28T04:43:55;13.88;;;6.72;;
52708;SDS011;38606;52.986;6.980;2023-02-28T04:46:21;11.13;;;6.70;;
52708;SDS011;38606;52.986;6.980;2023-02-28T04:48:47;10.10;;;6.85;;
52708;SDS011;38606;52.986;6.980;2023-02-28T04:51:14;10.27;;;6.82;;
52708;SDS011;38606;52.986;6.980;2023-02-28T04:53:42;12.77;;;7.20;;
52708;SDS011;38606;52.986;6.980;2023-02-28T04:56:10;12.77;;;7.00;;
52708;SDS011;38606;52.986;6.980;2023-02-28T04:58:38;11.93;;;7.20;;
52708;SDS011;38606;52.986;6.980;2023-02-28T05:01:21;16.95;;;7.60;;
52708;SDS011;38606;52.986;6.980;2023-02-28T05:03:55;11.30;;;7.43;;
52708;SDS011;38606;52.986;6.980;2023-02-28T05:06:23;13.05;;;7.60;;
52708;SDS011;38606;52.986;6.980;2023-02-28T05:08:50;14.95;;;7.88;;
52708;SDS011;38606;52.986;6.980;2023-02-28T05:11:20;13.10;;;7.55;;
52708;SDS011;38606;52.986;6.980;2023-02-28T05:13:48;13.02;;;7.68;;
52708;SDS011;38606;52.986;6.980;2023-02-28T05:16:14;15.70;;;7.68;;
52708;SDS011;38606;52.986;6.980;2023-02-28T05:18:40;13.57;;;7.43;;
52708;SDS011;38606;52.986;6.980;2023-02-28T05:21:06;13.18;;;7.53;;
52708;SDS011;38606;52.986;6.980;2023-02-28T05:23:48;13.05;;;6.72;;
52708;SDS011;38606;52.986;6.980;2023-02-28T05:26:14;14.48;;;8.35;;
52708;SDS011;38606;52.986;6.980;2023-02-28T05:28:40;12.82;;;6.78;;
52708;SDS011;38606;52.986;6.980;2023-02-28T05:31:05;15.30;;;8.10;;
52708;SDS011;38606;52.986;6.980;2023-02-28T05:33:31;16.88;;;7.78;;
52708;SDS011;38606;52.986;6.980;2023-02-28T05:35:56;12.07;;;7.35;;
52708;SDS011;38606;52.986;6.980;2023-02-28T05:38:22;13.82;;;7.55;;
52708;SDS011;38606;52.986;6.980;2023-02-28T05:40:48;19.27;;;7.65;;
52708;SDS011;38606;52.986;6.980;2023-02-28T05:43:13;14.18;;;8.38;;
52708;SDS011;38606;52.986;6.980;2023-02-28T05:45:40;13.07;;;7.75;;
52708;SDS011;38606;52.986;6.980;2023-02-28T05:48:05;17.23;;;8.15;;
52708;SDS011;38606;52.986;6.980;2023-02-28T05:50:31;13.35;;;7.53;;
52708;SDS011;38606;52.986;6.980;2023-02-28T05:52:57;14.90;;;8.30;;
52708;SDS011;38606;52.986;6.980;2023-02-28T05:55:22;15.55;;;8.90;;
52708;SDS011;38606;52.986;6.980;2023-02-28T05:57:48;15.48;;;8.00;;
52708;SDS011;38606;52.986;6.980;2023-02-28T06:00:14;12.40;;;7.82;;
52708;SDS011;38606;52.986;6.980;2023-02-28T06:02:40;20.23;;;8.85;;
52708;SDS011;38606;52.986;6.980;2023-02-28T06:05:16;14.23;;;8.63;;
52708;SDS011;38606;52.986;6.980;2023-02-28T06:07:43;17.90;;;8.77;;
52708;SDS011;38606;52.986;6.980;2023-02-28T06:10:10;13.63;;;8.25;;
52708;SDS011;38606;52.986;6.980;2023-02-28T06:12:36;16.10;;;8.25;;
52708;SDS011;38606;52.986;6.980;2023-02-28T06:15:02;17.75;;;8.95;;
52708;SDS011;38606;52.986;6.980;2023-02-28T06:17:28;12.85;;;8.55;;
52708;SDS011;38606;52.986;6.980;2023-02-28T06:19:54;18.23;;;9.15;;
52708;SDS011;38606;52.986;6.980;2023-02-28T06:22:20;15.35;;;8.55;;
52708;SDS011;38606;52.986;6.980;2023-02-28T06:24:46;15.60;;;9.13;;
52708;SDS011;38606;52.986;6.980;2023-02-28T06:27:11;19.25;;;8.63;;
52708;SDS011;38606;52.986;6.980;2023-02-28T06:29:37;17.77;;;8.90;;
52708;SDS011;38606;52.986;6.980;2023-02-28T06:32:04;16.13;;;10.05;;
52708;SDS011;38606;52.986;6.980;2023-02-28T06:34:31;16.95;;;9.30;;
52708;SDS011;38606;52.986;6.980;2023-02-28T06:37:00;16.48;;;9.27;;
52708;SDS011;38606;52.986;6.980;2023-02-28T06:39:27;17.23;;;9.90;;
52708;SDS011;38606;52.986;6.980;2023-02-28T06:41:54;19.58;;;9.60;;
52708;SDS011;38606;52.986;6.980;2023-02-28T06:44:20;15.13;;;9.43;;
52708;SDS011;38606;52.986;6.980;2023-02-28T06:46:47;15.10;;;9.60;;
52708;SDS011;38606;52.986;6.980;2023-02-28T06:49:13;20.42;;;9.10;;
52708;SDS011;38606;52.986;6.980;2023-02-28T06:51:42;13.38;;;8.13;;
52708;SDS011;38606;52.986;6.980;2023-02-28T06:54:10;16.33;;;9.45;;
52708;SDS011;38606;52.986;6.980;2023-02-28T06:56:36;18.00;;;9.80;;
52708;SDS011;38606;52.986;6.980;2023-02-28T06:59:02;15.63;;;9.63;;
52708;SDS011;38606;52.986;6.980;2023-02-28T07:01:28;19.38;;;11.18;;
52708;SDS011;38606;52.986;6.980;2023-02-28T07:03:56;18.95;;;10.30;;
52708;SDS011;38606;52.986;6.980;2023-02-28T07:06:23;21.70;;;11.52;;
52708;SDS011;38606;52.986;6.980;2023-02-28T07:08:50;19.75;;;11.20;;
52708;SDS011;38606;52.986;6.980;2023-02-28T07:11:20;24.25;;;11.38;;
52708;SDS011;38606;52.986;6.980;2023-02-28T07:13:48;19.60;;;10.98;;
52708;SDS011;38606;52.986;6.980;2023-02-28T07:16:15;20.38;;;11.77;;
52708;SDS011;38606;52.986;6.980;2023-02-28T07:18:41;19.95;;;11.68;;
52708;SDS011;38606;52.986;6.980;2023-02-28T07:21:08;21.35;;;11.32;;
52708;SDS011;38606;52.986;6.980;2023-02-28T07:23:35;24.58;;;12.10;;
52708;SDS011;38606;52.986;6.980;2023-02-28T07:26:03;27.00;;;13.13;;
52708;SDS011;38606;52.986;6.980;2023-02-28T07:28:29;24.10;;;12.82;;
52708;SDS011;38606;52.986;6.980;2023-02-28T07:30:54;26.58;;;13.80;;
52708;SDS011;38606;52.986;6.980;2023-02-28T07:33:20;25.45;;;12.38;;
52708;SDS011;38606;52.986;6.980;2023-02-28T07:35:46;25.20;;;13.07;;
52708;SDS011;38606;52.986;6.980;2023-02-28T07:38:11;22.83;;;12.30;;
52708;SDS011;38606;52.986;6.980;2023-02-28T07:40:38;27.17;;;11.48;;
52708;SDS011;38606;52.986;6.980;2023-02-28T07:43:04;20.52;;;11.68;;
52708;SDS011;38606;52.986;6.980;2023-02-28T07:45:30;21.50;;;12.68;;
52708;SDS011;38606;52.986;6.980;2023-02-28T07:47:59;22.85;;;11.50;;
52708;SDS011;38606;52.986;6.980;2023-02-28T07:50:26;20.25;;;11.55;;
52708;SDS011;38606;52.986;6.980;2023-02-28T07:52:56;22.33;;;12.25;;
52708;SDS011;38606;52.986;6.980;2023-02-28T07:55:23;18.73;;;11.45;;
52708;SDS011;38606;52.986;6.980;2023-02-28T07:57:48;18.83;;;11.55;;
52708;SDS011;38606;52.986;6.980;2023-02-28T08:00:14;19.33;;;11.75;;
52708;SDS011;38606;52.986;6.980;2023-02-28T08:02:40;22.52;;;11.30;;
52708;SDS011;38606;52.986;6.980;2023-02-28T08:05:06;21.80;;;11.15;;
52708;SDS011;38606;52.986;6.980;2023-02-28T08:07:32;20.27;;;11.00;;
52708;SDS011;38606;52.986;6.980;2023-02-28T08:09:58;16.58;;;10.38;;
52708;SDS011;38606;52.986;6.980;2023-02-28T08:12:24;16.67;;;9.85;;
52708;SDS011;38606;52.986;6.980;2023-02-28T08:14:50;17.90;;;10.48;;
52708;SDS011;38606;52.986;6.980;2023-02-28T08:17:16;15.82;;;10.18;;
52708;SDS011;38606;52.986;6.980;2023-02-28T08:19:42;16.13;;;11.00;;
52708;SDS011;38606;52.986;6.980;2023-02-28T08:22:10;21.77;;;10.25;;
52708;SDS011;38606;52.986;6.980;2023-02-28T08:24:35;17.98;;;10.23;;
52708;SDS011;38606;52.986;6.980;2023-02-28T08:27:01;15.27;;;9.43;;
52708;SDS011;38606;52.986;6.980;2023-02-28T08:29:27;15.75;;;9.43;;
52708;SDS011;38606;52.986;6.980;2023-02-28T08:31:52;16.17;;;9.65;;
52708;SDS011;38606;52.986;6.980;2023-02-28T08:34:18;15.63;;;10.25;;
52708;SDS011;38606;52.986;6.980;2023-02-28T08:36:44;16.10;;;10.40;;
52708;SDS011;38606;52.986;6.980;2023-02-28T08:39:11;16.55;;;8.57;;
52708;SDS011;38606;52.986;6.980;2023-02-28T08:41:37;15.80;;;9.77;;
52708;SDS011;38606;52.986;6.980;2023-02-28T08:44:03;18.23;;;9.95;;
52708;SDS011;38606;52.986;6.980;2023-02-28T08:46:29;17.25;;;10.25;;
52708;SDS011;38606;52.986;6.980;2023-02-28T08:48:55;21.67;;;11.80;;
52708;SDS011;38606;52.986;6.980;2023-02-28T08:51:25;15.57;;;9.55;;
52708;SDS011;38606;52.986;6.980;2023-02-28T08:53:54;15.02;;;9.50;;
52708;SDS011;38606;52.986;6.980;2023-02-28T08:56:22;14.82;;;9.75;;
52708;SDS011;38606;52.986;6.980;2023-02-28T08:58:49;15.45;;;9.95;;
52708;SDS011;38606;52.986;6.980;2023-02-28T09:01:16;16.42;;;10.07;;
52708;SDS011;38606;52.986;6.980;2023-02-28T09:03:44;14.15;;;10.02;;
52708;SDS011;38606;52.986;6.980;2023-02-28T09:06:14;16.17;;;10.05;;
52708;SDS011;38606;52.986;6.980;2023-02-28T09:08:41;15.90;;;10.27;;
52708;SDS011;38606;52.986;6.980;2023-02-28T09:11:07;15.90;;;9.73;;
52708;SDS011;38606;52.986;6.980;2023-02-28T09:13:34;13.73;;;9.15;;
52708;SDS011;38606;52.986;6.980;2023-02-28T09:16:00;15.05;;;9.65;;
52708;SDS011;38606;52.986;6.980;2023-02-28T09:18:28;12.68;;;8.18;;
52708;SDS011;38606;52.986;6.980;2023-02-28T09:20:54;18.05;;;9.00;;
52708;SDS011;38606;52.986;6.980;2023-02-28T09:23:21;20.02;;;8.82;;
52708;SDS011;38606;52.986;6.980;2023-02-28T09:25:50;13.20;;;7.82;;
52708;SDS011;38606;52.986;6.980;2023-02-28T09:28:17;13.23;;;8.20;;
52708;SDS011;38606;52.986;6.980;2023-02-28T09:30:44;15.23;;;8.85;;
52708;SDS011;38606;52.986;6.980;2023-02-28T09:33:12;16.90;;;8.95;;
52708;SDS011;38606;52.986;6.980;2023-02-28T09:35:38;15.38;;;8.90;;
52708;SDS011;38606;52.986;6.980;2023-02-28T09:38:04;14.32;;;7.45;;
52708;SDS011;38606;52.986;6.980;2023-02-28T09:40:30;14.18;;;8.40;;
52708;SDS011;38606;52.986;6.980;2023-02-28T09:42:57;16.83;;;8.40;;
52708;SDS011;38606;52.986;6.980;2023-02-28T09:48:03;12.00;;;8.07;;
52708;SDS011;38606;52.986;6.980;2023-02-28T09:50:36;14.73;;;8.00;;
52708;SDS011;38606;52.986;6.980;2023-02-28T09:53:15;16.48;;;7.57;;
52708;SDS011;38606;52.986;6.980;2023-02-28T09:55:56;12.68;;;7.57;;
52708;SDS011;38606;52.986;6.980;2023-02-28T10:01:05;12.93;;;8.25;;
52708;SDS011;38606;52.986;6.980;2023-02-28T10:06:22;9.20;;;6.70;;
52708;SDS011;38606;52.986;6.980;2023-02-28T10:11:23;9.55;;;6.55;;
52708;SDS011;38606;52.986;6.980;2023-02-28T10:14:02;12.77;;;6.03;;
52708;SDS011;38606;52.986;6.980;2023-02-28T10:19:41;7.90;;;5.57;;
52708;SDS011;38606;52.986;6.980;2023-02-28T10:22:24;10.20;;;5.70;;
52708;SDS011;38606;52.986;6.980;2023-02-28T10:25:23;13.98;;;6.18;;
52708;SDS011;38606;52.986;6.980;2023-02-28T10:27:57;8.73;;;5.88;;
52708;SDS011;38606;52.986;6.980;2023-02-28T10:30:30;10.80;;;6.45;;
52708;SDS011;38606;52.986;6.980;2023-02-28T10:32:56;11.80;;;6.43;;
52708;SDS011;38606;52.986;6.980;2023-02-28T10:35:23;9.35;;;6.00;;
52708;SDS011;38606;52.986;6.980;2023-02-28T10:37:52;11.57;;;6.38;;
52708;SDS011;38606;52.986;6.980;2023-02-28T10:45:39;8.02;;;5.80;;
52708;SDS011;38606;52.986;6.980;2023-02-28T10:48:29;9.27;;;5.95;;
52708;SDS011;38606;52.986;6.980;2023-02-28T10:50:59;9.68;;;5.40;;
52708;SDS011;38606;52.986;6.980;2023-02-28T10:53:33;9.48;;;5.57;;
52708;SDS011;38606;52.986;6.980;2023-02-28T11:04:14;4.22;;;3.83;;
52708;SDS011;38606;52.986;6.980;2023-02-28T11:06:43;6.90;;;3.65;;
52708;SDS011;38606;52.986;6.980;2023-02-28T11:09:23;8.68;;;3.75;;
52708;SDS011;38606;52.986;6.980;2023-02-28T11:11:56;6.22;;;3.90;;
52708;SDS011;38606;52.986;6.980;2023-02-28T11:14:24;7.45;;;3.95;;
52708;SDS011;38606;52.986;6.980;2023-02-28T11:16:52;7.60;;;3.95;;
52708;SDS011;38606;52.986;6.980;2023-02-28T11:19:27;5.80;;;3.97;;
52708;SDS011;38606;52.986;6.980;2023-02-28T11:22:04;6.45;;;4.43;;
52708;SDS011;38606;52.986;6.980;2023-02-28T11:24:35;7.78;;;4.10;;
52708;SDS011;38606;52.986;6.980;2023-02-28T11:27:05;5.50;;;4.07;;
52708;SDS011;38606;52.986;6.980;2023-02-28T11:29:32;8.43;;;4.53;;
52708;SDS011;38606;52.986;6.980;2023-02-28T11:37:51;7.50;;;4.30;;
52708;SDS011;38606;52.986;6.980;2023-02-28T11:40:18;9.10;;;4.13;;
52708;SDS011;38606;52.986;6.980;2023-02-28T11:42:52;5.80;;;4.20;;
52708;SDS011;38606;52.986;6.980;2023-02-28T11:45:37;6.38;;;3.80;;
52708;SDS011;38606;52.986;6.980;2023-02-28T11:48:21;7.57;;;4.72;;
52708;SDS011;38606;52.986;6.980;2023-02-28T11:50:55;5.93;;;4.28;;
52708;SDS011;38606;52.986;6.980;2023-02-28T11:56:48;7.30;;;5.15;;
52708;SDS011;38606;52.986;6.980;2023-02-28T11:59:32;7.20;;;4.45;;
52708;SDS011;38606;52.986;6.980;2023-02-28T12:02:15;6.47;;;4.30;;
52708;SDS011;38606;52.986;6.980;2023-02-28T12:12:52;6.43;;;4.30;;
52708;SDS011;38606;52.986;6.980;2023-02-28T12:18:20;7.03;;;4.38;;
52708;SDS011;38606;52.986;6.980;2023-02-28T12:21:26;6.25;;;4.45;;
52708;SDS011;38606;52.986;6.980;2023-02-28T12:29:19;5.75;;;3.67;;
52708;SDS011;38606;52.986;6.980;2023-02-28T12:34:49;6.75;;;3.95;;
52708;SDS011;38606;52.986;6.980;2023-02-28T12:37:27;5.43;;;3.15;;
52708;SDS011;38606;52.986;6.980;2023-02-28T12:42:41;4.55;;;3.25;;
52708;SDS011;38606;52.986;6.980;2023-02-28T12:47:52;6.40;;;3.40;;
52708;SDS011;38606;52.986;6.980;2023-02-28T12:50:25;7.97;;;3.40;;
52708;SDS011;38606;52.986;6.980;2023-02-28T12:52:55;5.82;;;3.53;;
52708;SDS011;38606;52.986;6.980;2023-02-28T13:09:46;6.18;;;3.25;;
52708;SDS011;38606;52.986;6.980;2023-02-28T13:12:21;5.63;;;2.92;;
52708;SDS011;38606;52.986;6.980;2023-02-28T13:14:48;4.43;;;3.13;;
52708;SDS011;38606;52.986;6.980;2023-02-28T13:17:21;5.40;;;3.55;;
52708;SDS011;38606;52.986;6.980;2023-02-28T13:22:42;3.58;;;2.75;;
52708;SDS011;38606;52.986;6.980;2023-02-28T13:27:48;4.82;;;2.55;;
52708;SDS011;38606;52.986;6.980;2023-02-28T13:35:55;3.53;;;2.47;;
52708;SDS011;38606;52.986;6.980;2023-02-28T13:38:32;3.60;;;2.83;;
52708;SDS011;38606;52.986;6.980;2023-02-28T13:41:36;5.95;;;2.95;;
52708;SDS011;38606;52.986;6.980;2023-02-28T13:46:32;3.70;;;2.42;;
52708;SDS011;38606;52.986;6.980;2023-02-28T13:57:04;3.95;;;2.95;;
52708;SDS011;38606;52.986;6.980;2023-02-28T14:02:42;5.55;;;3.88;;
52708;SDS011;38606;52.986;6.980;2023-02-28T14:05:18;7.55;;;4.13;;
52708;SDS011;38606;52.986;6.980;2023-02-28T14:07:51;6.70;;;4.20;;
52708;SDS011;38606;52.986;6.980;2023-02-28T14:10:26;6.88;;;4.13;;
52708;SDS011;38606;52.986;6.980;2023-02-28T14:15:46;7.75;;;4.13;;
52708;SDS011;38606;52.986;6.980;2023-02-28T14:18:27;5.43;;;3.60;;
52708;SDS011;38606;52.986;6.980;2023-02-28T14:32:02;5.07;;;2.70;;
52708;SDS011;38606;52.986;6.980;2023-02-28T14:37:15;7.78;;;3.33;;
52708;SDS011;38606;52.986;6.980;2023-02-28T14:39:44;4.72;;;2.90;;
52708;SDS011;38606;52.986;6.980;2023-02-28T14:45:01;3.83;;;2.72;;
52708;SDS011;38606;52.986;6.980;2023-02-28T14:47:28;6.13;;;3.08;;
52708;SDS011;38606;52.986;6.980;2023-02-28T14:50:00;4.63;;;2.78;;
52708;SDS011;38606;52.986;6.980;2023-02-28T14:52:29;5.93;;;3.40;;
52708;SDS011;38606;52.986;6.980;2023-02-28T14:55:03;8.25;;;3.33;;
52708;SDS011;38606;52.986;6.980;2023-02-28T14:57:33;5.13;;;3.20;;
52708;SDS011;38606;52.986;6.980;2023-02-28T15:02:30;6.20;;;3.05;;
52708;SDS011;38606;52.986;6.980;2023-02-28T15:05:00;5.07;;;3.60;;
52708;SDS011;38606;52.986;6.980;2023-02-28T15:07:47;5.50;;;2.95;;
52708;SDS011;38606;52.986;6.980;2023-02-28T15:10:26;6.88;;;3.55;;
52708;SDS011;38606;52.986;6.980;2023-02-28T15:12:53;4.22;;;3.22;;
52708;SDS011;38606;52.986;6.980;2023-02-28T15:15:33;8.27;;;2.90;;
52708;SDS011;38606;52.986;6.980;2023-02-28T15:21:35;5.25;;;3.10;;
52708;SDS011;38606;52.986;6.980;2023-02-28T15:24:50;5.68;;;3.20;;
52708;SDS011;38606;52.986;6.980;2023-02-28T15:27:09;3.63;;;2.90;;
52708;SDS011;38606;52.986;6.980;2023-02-28T15:29:44;4.93;;;3.10;;
52708;SDS011;38606;52.986;6.980;2023-02-28T15:33:01;3.95;;;2.88;;
52708;SDS011;38606;52.986;6.980;2023-02-28T15:38:12;4.63;;;2.55;;
52708;SDS011;38606;52.986;6.980;2023-02-28T15:40:43;4.90;;;2.42;;
52708;SDS011;38606;52.986;6.980;2023-02-28T15:43:39;4.18;;;2.40;;
52708;SDS011;38606;52.986;6.980;2023-02-28T15:46:12;5.20;;;2.72;;
52708;SDS011;38606;52.986;6.980;2023-02-28T15:48:51;4.68;;;2.13;;
52708;SDS011;38606;52.986;6.980;2023-02-28T15:53:54;2.72;;;2.13;;
52708;SDS011;38606;52.986;6.980;2023-02-28T15:56:33;3.80;;;2.60;;
52708;SDS011;38606;52.986;6.980;2023-02-28T15:59:07;4.28;;;2.75;;
52708;SDS011;38606;52.986;6.980;2023-02-28T16:01:40;3.38;;;2.60;;
52708;SDS011;38606;52.986;6.980;2023-02-28T16:04:11;3.30;;;2.72;;
52708;SDS011;38606;52.986;6.980;2023-02-28T16:07:15;4.70;;;2.83;;
52708;SDS011;38606;52.986;6.980;2023-02-28T16:09:37;4.60;;;3.10;;
52708;SDS011;38606;52.986;6.980;2023-02-28T16:12:03;4.63;;;2.70;;
52708;SDS011;38606;52.986;6.980;2023-02-28T16:14:30;6.05;;;3.35;;
52708;SDS011;38606;52.986;6.980;2023-02-28T16:16:57;6.03;;;3.28;;
52708;SDS011;38606;52.986;6.980;2023-02-28T16:19:29;5.03;;;3.13;;
52708;SDS011;38606;52.986;6.980;2023-02-28T16:21:56;7.35;;;3.60;;
52708;SDS011;38606;52.986;6.980;2023-02-28T16:24:22;5.50;;;3.00;;
52708;SDS011;38606;52.986;6.980;2023-02-28T16:26:48;4.00;;;2.58;;
52708;SDS011;38606;52.986;6.980;2023-02-28T16:29:27;5.45;;;3.25;;
52708;SDS011;38606;52.986;6.980;2023-02-28T16:32:01;8.30;;;3.25;;
52708;SDS011;38606;52.986;6.980;2023-02-28T16:34:30;4.82;;;2.70;;
52708;SDS011;38606;52.986;6.980;2023-02-28T16:36:55;4.18;;;2.92;;
52708;SDS011;38606;52.986;6.980;2023-02-28T16:39:21;4.13;;;2.83;;
52708;SDS011;38606;52.986;6.980;2023-02-28T16:41:48;5.72;;;3.00;;
52708;SDS011;38606;52.986;6.980;2023-02-28T16:46:54;5.68;;;3.10;;
52708;SDS011;38606;52.986;6.980;2023-02-28T16:49:20;6.18;;;3.08;;
52708;SDS011;38606;52.986;6.980;2023-02-28T16:51:46;4.22;;;2.42;;
52708;SDS011;38606;52.986;6.980;2023-02-28T16:54:12;6.28;;;3.30;;
52708;SDS011;38606;52.986;6.980;2023-02-28T16:56:38;4.80;;;2.80;;
52708;SDS011;38606;52.986;6.980;2023-02-28T16:59:08;6.82;;;3.22;;
52708;SDS011;38606;52.986;6.980;2023-02-28T17:01:36;4.32;;;3.03;;
52708;SDS011;38606;52.986;6.980;2023-02-28T17:04:02;6.38;;;3.40;;
52708;SDS011;38606;52.986;6.980;2023-02-28T17:06:28;7.80;;;2.90;;
52708;SDS011;38606;52.986;6.980;2023-02-28T17:08:55;4.90;;;2.88;;
52708;SDS011;38606;52.986;6.980;2023-02-28T17:11:23;6.15;;;2.63;;
52708;SDS011;38606;52.986;6.980;2023-02-28T17:13:49;3.67;;;2.75;;
52708;SDS011;38606;52.986;6.980;2023-02-28T17:16:28;5.22;;;3.08;;
52708;SDS011;38606;52.986;6.980;2023-02-28T17:18:59;4.18;;;2.78;;
52708;SDS011;38606;52.986;6.980;2023-02-28T17:21:28;4.85;;;3.00;;
52708;SDS011;38606;52.986;6.980;2023-02-28T17:23:55;7.13;;;2.90;;
52708;SDS011;38606;52.986;6.980;2023-02-28T17:26:21;5.70;;;3.10;;
52708;SDS011;38606;52.986;6.980;2023-02-28T17:28:51;5.00;;;3.40;;
52708;SDS011;38606;52.986;6.980;2023-02-28T17:31:19;5.15;;;4.10;;
52708;SDS011;38606;52.986;6.980;2023-02-28T17:33:45;10.68;;;6.53;;
52708;SDS011;38606;52.986;6.980;2023-02-28T17:36:15;7.15;;;5.45;;
52708;SDS011;38606;52.986;6.980;2023-02-28T17:38:46;7.05;;;4.35;;
52708;SDS011;38606;52.986;6.980;2023-02-28T17:41:12;6.28;;;4.47;;
52708;SDS011;38606;52.986;6.980;2023-02-28T17:43:38;7.22;;;4.68;;
52708;SDS011;38606;52.986;6.980;2023-02-28T17:46:05;8.63;;;4.47;;